sensor_id;sensor_type;location;lat;lon;timestamp;P1;durP1;ratioP1;P2;durP2;ratioP2
53519;SDS011;39397;53.204;5.778;2024-01-07T00:01:52;9.43;;;4.97;;
53519;SDS011;39397;53.204;5.778;2024-01-07T00:04:25;10.00;;;5.25;;
53519;SDS011;39397;53.204;5.778;2024-01-07T00:06:51;10.48;;;4.57;;
53519;SDS011;39397;53.204;5.778;2024-01-07T00:09:18;7.50;;;4.80;;
53519;SDS011;39397;53.204;5.778;2024-01-07T00:11:45;6.90;;;4.63;;
53519;SDS011;39397;53.204;5.778;2024-01-07T00:14:14;8.50;;;3.90;;
53519;SDS011;39397;53.204;5.778;2024-01-07T00:16:41;10.65;;;4.60;;
53519;SDS011;39397;53.204;5.778;2024-01-07T00:19:13;8.27;;;4.25;;
53519;SDS011;39397;53.204;5.778;2024-01-07T00:21:45;10.00;;;4.95;;
53519;SDS011;39397;53.204;5.778;2024-01-07T00:24:13;7.20;;;3.95;;
53519;SDS011;39397;53.204;5.778;2024-01-07T00:26:50;6.65;;;4.50;;
53519;SDS011;39397;53.204;5.778;2024-01-07T00:29:16;9.23;;;6.00;;
53519;SDS011;39397;53.204;5.778;2024-01-07T00:31:48;8.50;;;4.40;;
53519;SDS011;39397;53.204;5.778;2024-01-07T00:34:14;8.75;;;5.35;;
53519;SDS011;39397;53.204;5.778;2024-01-07T00:36:41;9.23;;;4.53;;
53519;SDS011;39397;53.204;5.778;2024-01-07T00:39:07;10.60;;;5.07;;
53519;SDS011;39397;53.204;5.778;2024-01-07T00:41:34;10.50;;;5.20;;
53519;SDS011;39397;53.204;5.778;2024-01-07T00:44:06;8.65;;;5.30;;
53519;SDS011;39397;53.204;5.778;2024-01-07T00:46:32;9.73;;;4.97;;
53519;SDS011;39397;53.204;5.778;2024-01-07T00:49:03;8.45;;;5.13;;
53519;SDS011;39397;53.204;5.778;2024-01-07T00:51:29;7.82;;;4.70;;
53519;SDS011;39397;53.204;5.778;2024-01-07T00:53:57;10.18;;;5.13;;
53519;SDS011;39397;53.204;5.778;2024-01-07T00:56:27;9.80;;;5.03;;
53519;SDS011;39397;53.204;5.778;2024-01-07T00:58:54;7.78;;;4.85;;
53519;SDS011;39397;53.204;5.778;2024-01-07T01:01:21;8.60;;;5.20;;
53519;SDS011;39397;53.204;5.778;2024-01-07T01:03:47;9.77;;;4.85;;
53519;SDS011;39397;53.204;5.778;2024-01-07T01:06:14;9.10;;;5.32;;
53519;SDS011;39397;53.204;5.778;2024-01-07T01:08:40;7.65;;;4.95;;
53519;SDS011;39397;53.204;5.778;2024-01-07T01:11:11;9.88;;;5.28;;
53519;SDS011;39397;53.204;5.778;2024-01-07T01:13:46;8.15;;;4.68;;
53519;SDS011;39397;53.204;5.778;2024-01-07T01:16:19;9.18;;;5.32;;
53519;SDS011;39397;53.204;5.778;2024-01-07T01:18:45;10.88;;;5.72;;
53519;SDS011;39397;53.204;5.778;2024-01-07T01:21:12;7.45;;;4.00;;
53519;SDS011;39397;53.204;5.778;2024-01-07T01:23:39;7.75;;;4.60;;
53519;SDS011;39397;53.204;5.778;2024-01-07T01:26:11;10.30;;;5.15;;
53519;SDS011;39397;53.204;5.778;2024-01-07T01:28:38;8.10;;;5.32;;
53519;SDS011;39397;53.204;5.778;2024-01-07T01:31:04;8.57;;;4.95;;
53519;SDS011;39397;53.204;5.778;2024-01-07T01:33:31;9.52;;;5.53;;
53519;SDS011;39397;53.204;5.778;2024-01-07T01:36:03;9.52;;;4.75;;
53519;SDS011;39397;53.204;5.778;2024-01-07T01:38:31;8.80;;;5.78;;
53519;SDS011;39397;53.204;5.778;2024-01-07T01:41:00;8.73;;;5.20;;
53519;SDS011;39397;53.204;5.778;2024-01-07T01:43:32;9.80;;;5.43;;
53519;SDS011;39397;53.204;5.778;2024-01-07T01:45:58;12.25;;;5.43;;
53519;SDS011;39397;53.204;5.778;2024-01-07T01:48:27;9.32;;;5.55;;
53519;SDS011;39397;53.204;5.778;2024-01-07T01:51:00;9.35;;;5.50;;
53519;SDS011;39397;53.204;5.778;2024-01-07T01:53:29;9.93;;;5.70;;
53519;SDS011;39397;53.204;5.778;2024-01-07T01:55:57;11.45;;;6.53;;
53519;SDS011;39397;53.204;5.778;2024-01-07T01:58:25;12.18;;;6.22;;
53519;SDS011;39397;53.204;5.778;2024-01-07T02:01:03;8.77;;;5.43;;
53519;SDS011;39397;53.204;5.778;2024-01-07T02:03:30;9.88;;;6.00;;
53519;SDS011;39397;53.204;5.778;2024-01-07T02:05:56;10.45;;;6.43;;
53519;SDS011;39397;53.204;5.778;2024-01-07T02:08:23;11.35;;;5.82;;
53519;SDS011;39397;53.204;5.778;2024-01-07T02:10:53;11.75;;;5.93;;
53519;SDS011;39397;53.204;5.778;2024-01-07T02:13:20;9.15;;;6.00;;
53519;SDS011;39397;53.204;5.778;2024-01-07T02:15:46;10.27;;;5.68;;
53519;SDS011;39397;53.204;5.778;2024-01-07T02:18:13;10.98;;;5.80;;
53519;SDS011;39397;53.204;5.778;2024-01-07T02:20:45;9.35;;;5.45;;
53519;SDS011;39397;53.204;5.778;2024-01-07T02:23:10;9.88;;;5.68;;
53519;SDS011;39397;53.204;5.778;2024-01-07T02:25:47;8.60;;;5.28;;
53519;SDS011;39397;53.204;5.778;2024-01-07T02:28:19;9.60;;;5.93;;
53519;SDS011;39397;53.204;5.778;2024-01-07T02:30:45;8.35;;;5.40;;
53519;SDS011;39397;53.204;5.778;2024-01-07T02:33:11;7.25;;;4.30;;
53519;SDS011;39397;53.204;5.778;2024-01-07T02:35:37;7.30;;;4.70;;
53519;SDS011;39397;53.204;5.778;2024-01-07T02:38:03;8.15;;;4.45;;
53519;SDS011;39397;53.204;5.778;2024-01-07T02:40:30;9.10;;;5.03;;
53519;SDS011;39397;53.204;5.778;2024-01-07T02:43:00;9.20;;;5.13;;
53519;SDS011;39397;53.204;5.778;2024-01-07T02:45:26;8.27;;;4.88;;
53519;SDS011;39397;53.204;5.778;2024-01-07T02:47:52;9.45;;;5.30;;
53519;SDS011;39397;53.204;5.778;2024-01-07T02:50:24;9.77;;;5.18;;
53519;SDS011;39397;53.204;5.778;2024-01-07T02:52:50;9.40;;;4.80;;
53519;SDS011;39397;53.204;5.778;2024-01-07T02:55:15;7.82;;;5.10;;
53519;SDS011;39397;53.204;5.778;2024-01-07T02:57:41;10.57;;;6.13;;
53519;SDS011;39397;53.204;5.778;2024-01-07T03:00:07;8.48;;;5.15;;
53519;SDS011;39397;53.204;5.778;2024-01-07T03:02:34;13.65;;;6.00;;
53519;SDS011;39397;53.204;5.778;2024-01-07T03:05:00;9.80;;;6.13;;
53519;SDS011;39397;53.204;5.778;2024-01-07T03:07:31;11.05;;;5.88;;
53519;SDS011;39397;53.204;5.778;2024-01-07T03:10:10;9.73;;;5.53;;
53519;SDS011;39397;53.204;5.778;2024-01-07T03:12:39;11.45;;;4.90;;
53519;SDS011;39397;53.204;5.778;2024-01-07T03:15:07;11.60;;;5.10;;
53519;SDS011;39397;53.204;5.778;2024-01-07T03:17:35;8.45;;;4.82;;
53519;SDS011;39397;53.204;5.778;2024-01-07T03:20:13;8.20;;;4.60;;
53519;SDS011;39397;53.204;5.778;2024-01-07T03:22:46;8.77;;;4.35;;
53519;SDS011;39397;53.204;5.778;2024-01-07T03:25:18;7.50;;;4.63;;
53519;SDS011;39397;53.204;5.778;2024-01-07T03:27:44;5.85;;;3.47;;
53519;SDS011;39397;53.204;5.778;2024-01-07T03:30:10;7.35;;;3.63;;
53519;SDS011;39397;53.204;5.778;2024-01-07T03:32:36;6.35;;;3.40;;
53519;SDS011;39397;53.204;5.778;2024-01-07T03:35:02;7.30;;;3.03;;
53519;SDS011;39397;53.204;5.778;2024-01-07T03:37:28;6.55;;;3.67;;
53519;SDS011;39397;53.204;5.778;2024-01-07T03:39:54;6.28;;;3.17;;
53519;SDS011;39397;53.204;5.778;2024-01-07T03:42:19;5.40;;;3.17;;
53519;SDS011;39397;53.204;5.778;2024-01-07T03:44:45;10.45;;;6.00;;
53519;SDS011;39397;53.204;5.778;2024-01-07T03:47:11;6.05;;;3.15;;
53519;SDS011;39397;53.204;5.778;2024-01-07T03:49:37;8.88;;;2.80;;
53519;SDS011;39397;53.204;5.778;2024-01-07T03:52:03;9.50;;;3.55;;
53519;SDS011;39397;53.204;5.778;2024-01-07T03:54:32;5.22;;;2.88;;
53519;SDS011;39397;53.204;5.778;2024-01-07T03:56:57;7.25;;;3.28;;
53519;SDS011;39397;53.204;5.778;2024-01-07T03:59:23;6.80;;;2.83;;
53519;SDS011;39397;53.204;5.778;2024-01-07T04:01:50;5.63;;;2.60;;
53519;SDS011;39397;53.204;5.778;2024-01-07T04:04:18;5.20;;;2.40;;
53519;SDS011;39397;53.204;5.778;2024-01-07T04:06:44;5.75;;;2.60;;
53519;SDS011;39397;53.204;5.778;2024-01-07T04:09:09;5.53;;;2.22;;
53519;SDS011;39397;53.204;5.778;2024-01-07T04:11:41;5.20;;;2.20;;
53519;SDS011;39397;53.204;5.778;2024-01-07T04:14:08;5.30;;;2.60;;
53519;SDS011;39397;53.204;5.778;2024-01-07T04:16:34;4.97;;;1.98;;
53519;SDS011;39397;53.204;5.778;2024-01-07T04:19:00;6.55;;;2.22;;
53519;SDS011;39397;53.204;5.778;2024-01-07T04:21:26;6.75;;;1.95;;
53519;SDS011;39397;53.204;5.778;2024-01-07T04:23:52;5.70;;;2.10;;
53519;SDS011;39397;53.204;5.778;2024-01-07T04:26:17;7.15;;;2.53;;
53519;SDS011;39397;53.204;5.778;2024-01-07T04:28:43;4.97;;;2.15;;
53519;SDS011;39397;53.204;5.778;2024-01-07T04:31:09;6.47;;;2.20;;
53519;SDS011;39397;53.204;5.778;2024-01-07T04:33:35;7.03;;;2.22;;
53519;SDS011;39397;53.204;5.778;2024-01-07T04:36:01;5.15;;;2.00;;
53519;SDS011;39397;53.204;5.778;2024-01-07T04:38:27;4.88;;;1.75;;
53519;SDS011;39397;53.204;5.778;2024-01-07T04:40:52;4.88;;;1.90;;
53519;SDS011;39397;53.204;5.778;2024-01-07T04:43:18;9.40;;;2.20;;
53519;SDS011;39397;53.204;5.778;2024-01-07T04:45:44;6.25;;;2.03;;
53519;SDS011;39397;53.204;5.778;2024-01-07T04:48:10;7.40;;;1.98;;
53519;SDS011;39397;53.204;5.778;2024-01-07T04:50:36;4.28;;;2.00;;
53519;SDS011;39397;53.204;5.778;2024-01-07T04:53:02;4.22;;;2.08;;
53519;SDS011;39397;53.204;5.778;2024-01-07T04:55:29;7.18;;;2.75;;
53519;SDS011;39397;53.204;5.778;2024-01-07T04:57:55;7.00;;;2.47;;
53519;SDS011;39397;53.204;5.778;2024-01-07T05:00:21;4.85;;;1.65;;
53519;SDS011;39397;53.204;5.778;2024-01-07T05:02:47;4.40;;;1.98;;
53519;SDS011;39397;53.204;5.778;2024-01-07T05:05:12;5.22;;;1.50;;
53519;SDS011;39397;53.204;5.778;2024-01-07T05:07:38;4.97;;;1.88;;
53519;SDS011;39397;53.204;5.778;2024-01-07T05:10:04;4.85;;;1.73;;
53519;SDS011;39397;53.204;5.778;2024-01-07T05:12:30;3.40;;;1.60;;
53519;SDS011;39397;53.204;5.778;2024-01-07T05:14:56;6.13;;;2.30;;
53519;SDS011;39397;53.204;5.778;2024-01-07T05:17:22;3.97;;;1.70;;
53519;SDS011;39397;53.204;5.778;2024-01-07T05:19:48;5.45;;;2.10;;
53519;SDS011;39397;53.204;5.778;2024-01-07T05:22:13;5.68;;;2.08;;
53519;SDS011;39397;53.204;5.778;2024-01-07T05:24:39;5.65;;;1.75;;
53519;SDS011;39397;53.204;5.778;2024-01-07T05:27:05;6.35;;;2.00;;
53519;SDS011;39397;53.204;5.778;2024-01-07T05:29:31;4.22;;;1.67;;
53519;SDS011;39397;53.204;5.778;2024-01-07T05:32:00;2.95;;;1.45;;
53519;SDS011;39397;53.204;5.778;2024-01-07T05:34:27;5.30;;;1.80;;
53519;SDS011;39397;53.204;5.778;2024-01-07T05:36:53;2.75;;;1.38;;
53519;SDS011;39397;53.204;5.778;2024-01-07T05:39:22;3.75;;;1.58;;
53519;SDS011;39397;53.204;5.778;2024-01-07T05:41:48;4.28;;;1.65;;
53519;SDS011;39397;53.204;5.778;2024-01-07T05:44:14;3.25;;;1.50;;
53519;SDS011;39397;53.204;5.778;2024-01-07T05:46:39;5.32;;;1.70;;
53519;SDS011;39397;53.204;5.778;2024-01-07T05:49:05;3.60;;;1.42;;
53519;SDS011;39397;53.204;5.778;2024-01-07T05:51:31;4.75;;;1.48;;
53519;SDS011;39397;53.204;5.778;2024-01-07T05:53:57;3.95;;;1.23;;
53519;SDS011;39397;53.204;5.778;2024-01-07T05:56:23;3.95;;;1.73;;
53519;SDS011;39397;53.204;5.778;2024-01-07T05:58:49;3.60;;;1.40;;
53519;SDS011;39397;53.204;5.778;2024-01-07T06:01:18;3.95;;;1.50;;
53519;SDS011;39397;53.204;5.778;2024-01-07T06:03:45;4.80;;;1.42;;
53519;SDS011;39397;53.204;5.778;2024-01-07T06:06:13;3.13;;;1.30;;
53519;SDS011;39397;53.204;5.778;2024-01-07T06:08:42;4.88;;;1.70;;
53519;SDS011;39397;53.204;5.778;2024-01-07T06:11:08;4.90;;;1.42;;
53519;SDS011;39397;53.204;5.778;2024-01-07T06:13:36;5.55;;;1.63;;
53519;SDS011;39397;53.204;5.778;2024-01-07T06:16:01;4.95;;;1.42;;
53519;SDS011;39397;53.204;5.778;2024-01-07T06:18:27;2.38;;;1.08;;
53519;SDS011;39397;53.204;5.778;2024-01-07T06:20:53;2.47;;;1.23;;
53519;SDS011;39397;53.204;5.778;2024-01-07T06:23:19;3.40;;;1.35;;
53519;SDS011;39397;53.204;5.778;2024-01-07T06:25:45;3.60;;;1.20;;
53519;SDS011;39397;53.204;5.778;2024-01-07T06:28:10;5.70;;;1.40;;
53519;SDS011;39397;53.204;5.778;2024-01-07T06:30:36;3.40;;;1.10;;
53519;SDS011;39397;53.204;5.778;2024-01-07T06:33:02;4.65;;;1.58;;
53519;SDS011;39397;53.204;5.778;2024-01-07T06:35:28;3.33;;;1.00;;
53519;SDS011;39397;53.204;5.778;2024-01-07T06:37:54;2.17;;;0.90;;
53519;SDS011;39397;53.204;5.778;2024-01-07T06:40:20;3.13;;;1.20;;
53519;SDS011;39397;53.204;5.778;2024-01-07T06:42:45;4.55;;;1.02;;
53519;SDS011;39397;53.204;5.778;2024-01-07T06:45:13;3.45;;;1.40;;
53519;SDS011;39397;53.204;5.778;2024-01-07T06:47:40;4.05;;;1.10;;
53519;SDS011;39397;53.204;5.778;2024-01-07T06:50:06;5.00;;;1.20;;
53519;SDS011;39397;53.204;5.778;2024-01-07T06:52:32;2.72;;;1.02;;
53519;SDS011;39397;53.204;5.778;2024-01-07T06:54:58;3.33;;;0.90;;
53519;SDS011;39397;53.204;5.778;2024-01-07T06:57:25;3.45;;;1.00;;
53519;SDS011;39397;53.204;5.778;2024-01-07T06:59:50;2.33;;;1.00;;
53519;SDS011;39397;53.204;5.778;2024-01-07T07:02:16;3.15;;;0.95;;
53519;SDS011;39397;53.204;5.778;2024-01-07T07:04:42;4.10;;;1.30;;
53519;SDS011;39397;53.204;5.778;2024-01-07T07:07:07;3.72;;;1.08;;
53519;SDS011;39397;53.204;5.778;2024-01-07T07:09:33;2.03;;;1.10;;
53519;SDS011;39397;53.204;5.778;2024-01-07T07:11:59;4.70;;;1.05;;
53519;SDS011;39397;53.204;5.778;2024-01-07T07:14:25;2.83;;;1.20;;
53519;SDS011;39397;53.204;5.778;2024-01-07T07:16:51;3.85;;;1.67;;
53519;SDS011;39397;53.204;5.778;2024-01-07T07:19:17;3.17;;;1.15;;
53519;SDS011;39397;53.204;5.778;2024-01-07T07:21:43;5.82;;;1.70;;
53519;SDS011;39397;53.204;5.778;2024-01-07T07:24:09;2.58;;;1.08;;
53519;SDS011;39397;53.204;5.778;2024-01-07T07:26:35;4.93;;;1.38;;
53519;SDS011;39397;53.204;5.778;2024-01-07T07:29:05;4.38;;;1.02;;
53519;SDS011;39397;53.204;5.778;2024-01-07T07:31:32;3.42;;;1.30;;
53519;SDS011;39397;53.204;5.778;2024-01-07T07:33:57;5.22;;;1.58;;
53519;SDS011;39397;53.204;5.778;2024-01-07T07:36:23;5.25;;;1.17;;
53519;SDS011;39397;53.204;5.778;2024-01-07T07:38:49;6.30;;;1.40;;
53519;SDS011;39397;53.204;5.778;2024-01-07T07:41:14;3.63;;;1.33;;
53519;SDS011;39397;53.204;5.778;2024-01-07T07:43:40;5.75;;;1.48;;
53519;SDS011;39397;53.204;5.778;2024-01-07T07:46:06;7.07;;;2.13;;
53519;SDS011;39397;53.204;5.778;2024-01-07T07:48:31;4.45;;;1.33;;
53519;SDS011;39397;53.204;5.778;2024-01-07T07:50:57;4.38;;;1.40;;
53519;SDS011;39397;53.204;5.778;2024-01-07T07:53:23;4.35;;;1.67;;
53519;SDS011;39397;53.204;5.778;2024-01-07T07:55:49;3.00;;;1.35;;
53519;SDS011;39397;53.204;5.778;2024-01-07T07:58:15;4.05;;;1.35;;
53519;SDS011;39397;53.204;5.778;2024-01-07T08:00:40;5.07;;;1.88;;
53519;SDS011;39397;53.204;5.778;2024-01-07T08:03:06;4.03;;;1.50;;
53519;SDS011;39397;53.204;5.778;2024-01-07T08:05:32;5.40;;;1.55;;
53519;SDS011;39397;53.204;5.778;2024-01-07T08:07:57;4.30;;;1.52;;
53519;SDS011;39397;53.204;5.778;2024-01-07T08:10:23;5.75;;;1.50;;
53519;SDS011;39397;53.204;5.778;2024-01-07T08:12:49;3.15;;;1.60;;
53519;SDS011;39397;53.204;5.778;2024-01-07T08:15:15;4.38;;;2.03;;
53519;SDS011;39397;53.204;5.778;2024-01-07T08:17:41;6.40;;;1.60;;
53519;SDS011;39397;53.204;5.778;2024-01-07T08:20:07;4.97;;;2.15;;
53519;SDS011;39397;53.204;5.778;2024-01-07T08:22:34;4.50;;;1.85;;
53519;SDS011;39397;53.204;5.778;2024-01-07T08:24:59;4.75;;;1.55;;
53519;SDS011;39397;53.204;5.778;2024-01-07T08:27:26;5.90;;;1.88;;
53519;SDS011;39397;53.204;5.778;2024-01-07T08:29:52;3.40;;;1.38;;
53519;SDS011;39397;53.204;5.778;2024-01-07T08:32:18;5.05;;;1.55;;
53519;SDS011;39397;53.204;5.778;2024-01-07T08:34:47;5.60;;;2.03;;
53519;SDS011;39397;53.204;5.778;2024-01-07T08:37:13;3.45;;;1.50;;
53519;SDS011;39397;53.204;5.778;2024-01-07T08:39:39;4.00;;;1.63;;
53519;SDS011;39397;53.204;5.778;2024-01-07T08:42:04;3.72;;;1.40;;
53519;SDS011;39397;53.204;5.778;2024-01-07T08:44:31;3.38;;;1.67;;
53519;SDS011;39397;53.204;5.778;2024-01-07T08:46:57;5.00;;;1.63;;
53519;SDS011;39397;53.204;5.778;2024-01-07T08:49:25;3.65;;;1.50;;
53519;SDS011;39397;53.204;5.778;2024-01-07T08:51:51;4.38;;;1.40;;
53519;SDS011;39397;53.204;5.778;2024-01-07T08:54:19;3.65;;;1.30;;
53519;SDS011;39397;53.204;5.778;2024-01-07T08:56:45;3.30;;;1.20;;
53519;SDS011;39397;53.204;5.778;2024-01-07T08:59:11;4.40;;;1.65;;
53519;SDS011;39397;53.204;5.778;2024-01-07T09:01:37;5.00;;;1.40;;
53519;SDS011;39397;53.204;5.778;2024-01-07T09:04:02;3.38;;;1.48;;
53519;SDS011;39397;53.204;5.778;2024-01-07T09:06:28;4.07;;;1.58;;
53519;SDS011;39397;53.204;5.778;2024-01-07T09:08:54;4.68;;;1.55;;
53519;SDS011;39397;53.204;5.778;2024-01-07T09:11:22;3.17;;;1.45;;
53519;SDS011;39397;53.204;5.778;2024-01-07T09:13:55;3.80;;;1.55;;
53519;SDS011;39397;53.204;5.778;2024-01-07T09:16:22;4.07;;;1.58;;
53519;SDS011;39397;53.204;5.778;2024-01-07T09:18:48;5.60;;;1.92;;
53519;SDS011;39397;53.204;5.778;2024-01-07T09:21:16;3.35;;;1.30;;
53519;SDS011;39397;53.204;5.778;2024-01-07T09:23:41;3.40;;;1.50;;
53519;SDS011;39397;53.204;5.778;2024-01-07T09:26:08;4.00;;;1.55;;
53519;SDS011;39397;53.204;5.778;2024-01-07T09:28:34;4.78;;;1.52;;
53519;SDS011;39397;53.204;5.778;2024-01-07T09:31:00;3.08;;;1.50;;
53519;SDS011;39397;53.204;5.778;2024-01-07T09:33:25;4.43;;;1.67;;
53519;SDS011;39397;53.204;5.778;2024-01-07T09:35:51;6.88;;;2.28;;
53519;SDS011;39397;53.204;5.778;2024-01-07T09:38:17;5.93;;;1.67;;
53519;SDS011;39397;53.204;5.778;2024-01-07T09:40:42;5.03;;;1.80;;
53519;SDS011;39397;53.204;5.778;2024-01-07T09:43:08;5.03;;;2.15;;
53519;SDS011;39397;53.204;5.778;2024-01-07T09:45:38;5.18;;;1.95;;
53519;SDS011;39397;53.204;5.778;2024-01-07T09:48:06;3.30;;;1.58;;
53519;SDS011;39397;53.204;5.778;2024-01-07T09:50:32;4.35;;;1.70;;
53519;SDS011;39397;53.204;5.778;2024-01-07T09:52:58;5.88;;;1.50;;
53519;SDS011;39397;53.204;5.778;2024-01-07T09:55:29;3.85;;;1.65;;
53519;SDS011;39397;53.204;5.778;2024-01-07T09:57:58;7.22;;;1.80;;
53519;SDS011;39397;53.204;5.778;2024-01-07T10:00:26;6.30;;;1.63;;
53519;SDS011;39397;53.204;5.778;2024-01-07T10:02:53;4.47;;;1.50;;
53519;SDS011;39397;53.204;5.778;2024-01-07T10:05:19;4.75;;;1.77;;
53519;SDS011;39397;53.204;5.778;2024-01-07T10:07:45;4.75;;;1.73;;
53519;SDS011;39397;53.204;5.778;2024-01-07T10:10:14;6.95;;;1.92;;
53519;SDS011;39397;53.204;5.778;2024-01-07T10:12:43;6.75;;;1.60;;
53519;SDS011;39397;53.204;5.778;2024-01-07T10:15:10;4.78;;;1.40;;
53519;SDS011;39397;53.204;5.778;2024-01-07T10:17:35;4.28;;;1.60;;
53519;SDS011;39397;53.204;5.778;2024-01-07T10:20:04;2.92;;;1.50;;
53519;SDS011;39397;53.204;5.778;2024-01-07T10:22:30;5.53;;;2.00;;
53519;SDS011;39397;53.204;5.778;2024-01-07T10:24:59;3.90;;;1.27;;
53519;SDS011;39397;53.204;5.778;2024-01-07T10:27:25;2.97;;;1.30;;
53519;SDS011;39397;53.204;5.778;2024-01-07T10:29:51;2.38;;;1.25;;
53519;SDS011;39397;53.204;5.778;2024-01-07T10:32:20;3.50;;;1.38;;
53519;SDS011;39397;53.204;5.778;2024-01-07T10:34:46;4.32;;;1.50;;
53519;SDS011;39397;53.204;5.778;2024-01-07T10:37:13;3.72;;;1.38;;
53519;SDS011;39397;53.204;5.778;2024-01-07T10:39:39;4.85;;;2.10;;
53519;SDS011;39397;53.204;5.778;2024-01-07T10:42:05;4.88;;;1.73;;
53519;SDS011;39397;53.204;5.778;2024-01-07T10:44:32;4.38;;;1.58;;
53519;SDS011;39397;53.204;5.778;2024-01-07T10:46:59;4.20;;;1.42;;
53519;SDS011;39397;53.204;5.778;2024-01-07T10:49:26;2.53;;;1.38;;
53519;SDS011;39397;53.204;5.778;2024-01-07T10:52:00;4.93;;;1.60;;
53519;SDS011;39397;53.204;5.778;2024-01-07T10:54:32;3.60;;;1.42;;
53519;SDS011;39397;53.204;5.778;2024-01-07T10:57:21;6.18;;;2.20;;
53519;SDS011;39397;53.204;5.778;2024-01-07T11:00:03;5.07;;;1.73;;
53519;SDS011;39397;53.204;5.778;2024-01-07T11:02:34;5.15;;;2.05;;
53519;SDS011;39397;53.204;5.778;2024-01-07T11:05:17;6.03;;;2.30;;
53519;SDS011;39397;53.204;5.778;2024-01-07T11:11:07;3.95;;;1.70;;
53519;SDS011;39397;53.204;5.778;2024-01-07T11:13:40;3.70;;;1.88;;
53519;SDS011;39397;53.204;5.778;2024-01-07T11:16:08;5.57;;;2.17;;
53519;SDS011;39397;53.204;5.778;2024-01-07T11:18:37;7.18;;;1.77;;
53519;SDS011;39397;53.204;5.778;2024-01-07T11:21:05;4.97;;;1.98;;
53519;SDS011;39397;53.204;5.778;2024-01-07T11:23:35;4.50;;;1.90;;
53519;SDS011;39397;53.204;5.778;2024-01-07T11:26:03;4.20;;;1.95;;
53519;SDS011;39397;53.204;5.778;2024-01-07T11:28:43;4.68;;;1.85;;
53519;SDS011;39397;53.204;5.778;2024-01-07T11:31:20;4.95;;;2.00;;
53519;SDS011;39397;53.204;5.778;2024-01-07T11:34:07;5.03;;;2.08;;
53519;SDS011;39397;53.204;5.778;2024-01-07T11:36:36;5.53;;;1.90;;
53519;SDS011;39397;53.204;5.778;2024-01-07T11:39:03;5.72;;;2.20;;
53519;SDS011;39397;53.204;5.778;2024-01-07T11:41:33;3.67;;;1.70;;
53519;SDS011;39397;53.204;5.778;2024-01-07T11:44:00;3.95;;;1.83;;
53519;SDS011;39397;53.204;5.778;2024-01-07T11:46:27;4.88;;;1.70;;
53519;SDS011;39397;53.204;5.778;2024-01-07T11:48:56;3.90;;;1.40;;
53519;SDS011;39397;53.204;5.778;2024-01-07T11:51:30;4.53;;;1.67;;
53519;SDS011;39397;53.204;5.778;2024-01-07T11:53:57;4.30;;;1.90;;
53519;SDS011;39397;53.204;5.778;2024-01-07T11:56:24;5.40;;;1.60;;
53519;SDS011;39397;53.204;5.778;2024-01-07T11:58:51;4.30;;;1.60;;
53519;SDS011;39397;53.204;5.778;2024-01-07T12:01:17;6.88;;;1.63;;
53519;SDS011;39397;53.204;5.778;2024-01-07T12:03:44;3.88;;;1.80;;
53519;SDS011;39397;53.204;5.778;2024-01-07T12:06:10;5.65;;;1.92;;
53519;SDS011;39397;53.204;5.778;2024-01-07T12:08:40;6.43;;;1.92;;
53519;SDS011;39397;53.204;5.778;2024-01-07T12:11:06;4.95;;;1.90;;
53519;SDS011;39397;53.204;5.778;2024-01-07T12:13:35;8.20;;;1.90;;
53519;SDS011;39397;53.204;5.778;2024-01-07T12:16:02;4.55;;;2.25;;
53519;SDS011;39397;53.204;5.778;2024-01-07T12:18:30;4.93;;;1.65;;
53519;SDS011;39397;53.204;5.778;2024-01-07T12:20:57;5.78;;;1.98;;
53519;SDS011;39397;53.204;5.778;2024-01-07T12:23:24;4.95;;;2.10;;
53519;SDS011;39397;53.204;5.778;2024-01-07T12:25:54;5.50;;;1.80;;
53519;SDS011;39397;53.204;5.778;2024-01-07T12:28:23;5.95;;;2.10;;
53519;SDS011;39397;53.204;5.778;2024-01-07T12:30:49;4.05;;;1.98;;
53519;SDS011;39397;53.204;5.778;2024-01-07T12:33:21;5.35;;;2.28;;
53519;SDS011;39397;53.204;5.778;2024-01-07T12:35:47;4.07;;;2.00;;
53519;SDS011;39397;53.204;5.778;2024-01-07T12:38:12;4.07;;;2.38;;
53519;SDS011;39397;53.204;5.778;2024-01-07T12:40:38;4.95;;;2.10;;
53519;SDS011;39397;53.204;5.778;2024-01-07T12:43:04;6.63;;;2.13;;
53519;SDS011;39397;53.204;5.778;2024-01-07T12:45:33;8.20;;;2.75;;
53519;SDS011;39397;53.204;5.778;2024-01-07T12:47:59;3.72;;;2.10;;
53519;SDS011;39397;53.204;5.778;2024-01-07T12:50:27;5.47;;;2.38;;
53519;SDS011;39397;53.204;5.778;2024-01-07T12:52:55;6.60;;;2.22;;
53519;SDS011;39397;53.204;5.778;2024-01-07T12:55:22;6.03;;;2.00;;
53519;SDS011;39397;53.204;5.778;2024-01-07T12:57:48;5.20;;;2.45;;
53519;SDS011;39397;53.204;5.778;2024-01-07T13:00:14;7.10;;;2.45;;
53519;SDS011;39397;53.204;5.778;2024-01-07T13:02:43;5.82;;;2.50;;
53519;SDS011;39397;53.204;5.778;2024-01-07T13:05:09;7.15;;;2.28;;
53519;SDS011;39397;53.204;5.778;2024-01-07T13:07:38;6.90;;;2.38;;
53519;SDS011;39397;53.204;5.778;2024-01-07T13:10:03;6.18;;;2.17;;
53519;SDS011;39397;53.204;5.778;2024-01-07T13:12:30;3.10;;;1.70;;
53519;SDS011;39397;53.204;5.778;2024-01-07T13:14:55;5.03;;;2.03;;
53519;SDS011;39397;53.204;5.778;2024-01-07T13:17:21;5.57;;;2.40;;
53519;SDS011;39397;53.204;5.778;2024-01-07T13:19:47;5.97;;;2.50;;
53519;SDS011;39397;53.204;5.778;2024-01-07T13:22:12;6.32;;;2.30;;
53519;SDS011;39397;53.204;5.778;2024-01-07T13:24:39;6.00;;;2.53;;
53519;SDS011;39397;53.204;5.778;2024-01-07T13:27:06;9.43;;;1.80;;
53519;SDS011;39397;53.204;5.778;2024-01-07T13:29:33;5.72;;;2.00;;
53519;SDS011;39397;53.204;5.778;2024-01-07T13:32:00;7.43;;;2.10;;
53519;SDS011;39397;53.204;5.778;2024-01-07T13:34:26;6.47;;;2.10;;
53519;SDS011;39397;53.204;5.778;2024-01-07T13:36:52;7.18;;;2.67;;
53519;SDS011;39397;53.204;5.778;2024-01-07T13:39:17;6.50;;;2.90;;
53519;SDS011;39397;53.204;5.778;2024-01-07T13:41:46;7.00;;;2.30;;
53519;SDS011;39397;53.204;5.778;2024-01-07T13:44:14;5.85;;;2.58;;
53519;SDS011;39397;53.204;5.778;2024-01-07T13:49:15;6.75;;;2.60;;
53519;SDS011;39397;53.204;5.778;2024-01-07T13:51:41;6.65;;;2.20;;
53519;SDS011;39397;53.204;5.778;2024-01-07T13:54:07;7.03;;;2.58;;
53519;SDS011;39397;53.204;5.778;2024-01-07T13:56:35;5.75;;;2.40;;
53519;SDS011;39397;53.204;5.778;2024-01-07T13:59:02;7.18;;;3.05;;
53519;SDS011;39397;53.204;5.778;2024-01-07T14:01:28;9.30;;;3.42;;
53519;SDS011;39397;53.204;5.778;2024-01-07T14:03:54;7.95;;;2.42;;
53519;SDS011;39397;53.204;5.778;2024-01-07T14:06:21;6.22;;;2.22;;
53519;SDS011;39397;53.204;5.778;2024-01-07T14:08:46;4.88;;;2.60;;
53519;SDS011;39397;53.204;5.778;2024-01-07T14:11:12;9.65;;;3.10;;
53519;SDS011;39397;53.204;5.778;2024-01-07T14:13:38;5.00;;;2.58;;
53519;SDS011;39397;53.204;5.778;2024-01-07T14:16:04;6.68;;;2.40;;
53519;SDS011;39397;53.204;5.778;2024-01-07T14:18:30;7.57;;;3.15;;
53519;SDS011;39397;53.204;5.778;2024-01-07T14:20:56;5.93;;;2.67;;
53519;SDS011;39397;53.204;5.778;2024-01-07T14:23:21;7.40;;;2.78;;
53519;SDS011;39397;53.204;5.778;2024-01-07T14:25:47;7.22;;;2.47;;
53519;SDS011;39397;53.204;5.778;2024-01-07T14:28:13;10.60;;;5.00;;
53519;SDS011;39397;53.204;5.778;2024-01-07T14:30:39;9.07;;;3.72;;
53519;SDS011;39397;53.204;5.778;2024-01-07T14:33:04;6.95;;;3.03;;
53519;SDS011;39397;53.204;5.778;2024-01-07T14:35:30;5.65;;;2.28;;
53519;SDS011;39397;53.204;5.778;2024-01-07T14:37:59;5.35;;;2.60;;
53519;SDS011;39397;53.204;5.778;2024-01-07T14:40:25;5.85;;;2.63;;
53519;SDS011;39397;53.204;5.778;2024-01-07T14:42:51;8.25;;;2.90;;
53519;SDS011;39397;53.204;5.778;2024-01-07T14:45:23;6.28;;;2.33;;
53519;SDS011;39397;53.204;5.778;2024-01-07T14:47:50;7.47;;;2.45;;
53519;SDS011;39397;53.204;5.778;2024-01-07T14:50:16;7.57;;;2.90;;
53519;SDS011;39397;53.204;5.778;2024-01-07T14:52:43;6.18;;;2.55;;
53519;SDS011;39397;53.204;5.778;2024-01-07T14:55:08;7.45;;;3.38;;